createdAt,value
2018-12-06T00:03:14.795Z,2.10
2018-12-06T00:08:24.462Z,1.90
2018-12-06T00:13:29.720Z,1.80
2018-12-06T00:18:38.839Z,1.70
2018-12-06T00:23:50.512Z,1.90
2018-12-06T00:28:57.526Z,1.83
2018-12-06T00:34:10.770Z,1.80
2018-12-06T00:39:20.427Z,1.53
2018-12-06T00:44:26.797Z,1.63
2018-12-06T00:49:36.389Z,2.07
2018-12-06T00:54:46.019Z,1.73
2018-12-06T00:59:55.690Z,1.97
2018-12-06T01:05:05.796Z,1.50
2018-12-06T01:10:14.813Z,1.67
2018-12-06T01:15:24.478Z,1.50
2018-12-06T01:20:33.303Z,1.97
2018-12-06T01:25:40.550Z,1.70
2018-12-06T01:30:49.355Z,1.53
2018-12-06T01:35:58.155Z,1.60
2018-12-06T01:41:04.924Z,1.50
2018-12-06T01:46:14.283Z,1.80
2018-12-06T01:51:27.960Z,1.67
2018-12-06T01:56:35.115Z,1.70
2018-12-06T02:01:44.428Z,1.73
2018-12-06T02:06:51.095Z,1.53
2018-12-06T02:11:57.759Z,1.40
2018-12-06T02:17:07.148Z,1.10
2018-12-06T02:22:12.488Z,1.40
2018-12-06T02:27:21.982Z,1.40
2018-12-06T02:32:27.162Z,2.00
2018-12-06T02:37:34.093Z,1.53
2018-12-06T02:42:38.966Z,1.80
2018-12-06T02:47:48.189Z,1.60
2018-12-06T02:52:57.542Z,1.27
2018-12-06T02:58:06.794Z,1.43
2018-12-06T03:03:13.192Z,1.33
2018-12-06T03:08:22.190Z,1.50
2018-12-06T03:13:29.460Z,1.27
2018-12-06T03:18:38.431Z,1.30
2018-12-06T03:23:48.083Z,0.97
2018-12-06T03:28:57.388Z,1.17
2018-12-06T03:34:02.325Z,1.00
2018-12-06T03:39:09.358Z,1.13
2018-12-06T03:44:15.883Z,1.20
2018-12-06T03:49:24.832Z,1.37
2018-12-06T03:54:34.259Z,1.40
2018-12-06T03:59:41.291Z,1.80
2018-12-06T04:04:50.738Z,1.37
2018-12-06T04:09:55.963Z,1.57
2018-12-06T04:15:05.208Z,1.70
2018-12-06T04:20:11.621Z,2.23
2018-12-06T04:25:20.886Z,2.17
2018-12-06T04:30:26.233Z,1.93
2018-12-06T04:35:34.979Z,1.97
2018-12-06T04:40:43.883Z,1.67
2018-12-06T04:45:51.144Z,2.03
2018-12-06T04:51:00.195Z,1.73
2018-12-06T04:56:09.975Z,1.93
2018-12-06T05:01:19.594Z,2.20
2018-12-06T05:06:28.571Z,2.10
2018-12-06T05:11:35.274Z,2.10
2018-12-06T05:16:44.623Z,1.80
2018-12-06T05:21:51.214Z,1.93
2018-12-06T05:27:00.262Z,2.33
2018-12-06T05:32:10.713Z,2.20
2018-12-06T05:37:17.950Z,2.40
2018-12-06T05:42:31.058Z,2.07
2018-12-06T05:47:39.916Z,2.23
2018-12-06T05:52:44.973Z,4.20
2018-12-06T05:57:53.908Z,2.77
2018-12-06T06:02:59.154Z,2.23
2018-12-06T06:08:06.104Z,1.93
2018-12-06T06:13:15.371Z,2.60
2018-12-06T06:18:25.015Z,2.80
2018-12-06T06:23:32.459Z,1.77
2018-12-06T06:28:41.809Z,1.90
2018-12-06T06:33:48.482Z,1.70
2018-12-06T06:38:57.632Z,1.43
2018-12-06T06:44:06.555Z,2.20
2018-12-06T06:49:14.245Z,1.60
2018-12-06T06:54:21.618Z,2.60
2018-12-06T06:59:30.797Z,2.00
2018-12-06T07:04:40.535Z,1.90
2018-12-06T07:09:48.876Z,2.00
2018-12-06T07:14:57.785Z,1.73
2018-12-06T07:20:06.733Z,1.90
2018-12-06T07:25:28.609Z,1.90
2018-12-06T07:30:38.162Z,2.03
2018-12-06T07:35:47.460Z,2.03
2018-12-06T07:40:57.008Z,2.20
2018-12-06T07:46:11.192Z,2.30
2018-12-06T07:51:20.146Z,1.97
2018-12-06T07:56:29.539Z,2.17
2018-12-06T08:01:39.118Z,2.67
2018-12-06T08:06:46.359Z,2.20
2018-12-06T08:11:53.090Z,2.40
2018-12-06T08:17:02.604Z,2.70
2018-12-06T08:22:12.256Z,2.60
2018-12-06T08:27:21.197Z,2.73
2018-12-06T08:32:24.634Z,2.90
2018-12-06T08:37:28.011Z,2.73
2018-12-06T08:42:31.371Z,2.80
2018-12-06T08:47:34.595Z,2.70
2018-12-06T08:52:43.867Z,3.13
2018-12-06T08:57:52.686Z,2.87
2018-12-06T09:02:58.185Z,3.00
2018-12-06T09:08:07.410Z,3.67
2018-12-06T09:13:17.219Z,2.90
2018-12-06T09:18:26.754Z,3.13
2018-12-06T09:29:06.890Z,3.00
2018-12-06T09:34:16.091Z,3.43
2018-12-06T09:39:24.934Z,2.90
2018-12-06T09:44:34.773Z,3.40
2018-12-06T09:49:44.239Z,2.90
2018-12-06T09:54:53.393Z,2.93
2018-12-06T10:00:02.812Z,3.40
2018-12-06T10:05:12.414Z,3.17
2018-12-06T10:10:22.100Z,3.40
2018-12-06T10:15:31.682Z,3.30
2018-12-06T10:20:40.364Z,3.07
2018-12-06T10:25:49.309Z,3.30
2018-12-06T10:30:58.034Z,3.40
2018-12-06T10:36:10.684Z,3.30
2018-12-06T10:41:20.267Z,3.40
2018-12-06T10:46:29.738Z,3.40
2018-12-06T10:51:41.334Z,3.50
2018-12-06T10:56:50.530Z,3.30
2018-12-06T11:02:06.578Z,3.87
2018-12-06T11:07:13.919Z,3.70
2018-12-06T11:12:22.784Z,3.83
2018-12-06T11:17:31.994Z,3.57
2018-12-06T11:22:41.620Z,3.73
2018-12-06T11:27:50.547Z,3.30
2018-12-06T11:32:55.655Z,3.63
2018-12-06T11:38:04.997Z,3.93
2018-12-06T11:43:14.278Z,3.50
2018-12-06T11:48:26.883Z,3.97
2018-12-06T11:53:34.146Z,3.50
2018-12-06T11:58:43.675Z,3.40
2018-12-06T12:03:48.992Z,4.50
2018-12-06T12:08:58.439Z,3.57
2018-12-06T12:14:03.189Z,4.13
2018-12-06T12:19:12.883Z,3.80
2018-12-06T12:24:17.870Z,3.80
2018-12-06T12:29:27.007Z,3.77
2018-12-06T12:34:35.720Z,3.30
2018-12-06T12:39:44.474Z,3.20
2018-12-06T12:44:54.070Z,3.60
2018-12-06T12:50:02.941Z,3.60
2018-12-06T12:55:12.312Z,3.63
2018-12-06T13:00:18.774Z,3.40
2018-12-06T13:05:28.396Z,3.97
2018-12-06T13:10:33.595Z,3.20
2018-12-06T13:15:42.586Z,3.87
2018-12-06T13:20:51.448Z,3.40
2018-12-06T13:26:00.555Z,3.57
2018-12-06T13:31:09.351Z,3.33
2018-12-06T13:36:16.782Z,3.23
2018-12-06T13:41:25.970Z,3.30
2018-12-06T13:46:34.752Z,3.17
2018-12-06T13:51:43.702Z,4.63
2018-12-06T13:56:52.894Z,3.13
2018-12-06T14:02:00.087Z,3.10
2018-12-06T14:07:08.983Z,3.70
2018-12-06T14:12:14.173Z,2.77
2018-12-06T14:17:23.580Z,3.20
2018-12-06T14:22:36.246Z,3.27
2018-12-06T14:27:44.953Z,2.73
2018-12-06T14:38:31.132Z,2.47
2018-12-06T14:43:40.620Z,2.83
2018-12-06T14:48:49.623Z,2.87
2018-12-06T14:53:58.760Z,2.40
2018-12-06T14:59:02.352Z,2.60
2018-12-06T15:04:21.772Z,2.80
2018-12-06T15:09:29.042Z,2.83
2018-12-06T15:20:04.316Z,2.60
2018-12-06T15:25:07.962Z,2.50
2018-12-06T15:30:15.140Z,2.70
2018-12-06T15:35:18.407Z,2.30
2018-12-06T15:40:21.692Z,2.20
2018-12-06T15:45:25.128Z,2.30
2018-12-06T15:56:03.076Z,2.00
2018-12-06T16:01:12.165Z,2.00
2018-12-06T16:06:21.843Z,1.70
2018-12-06T16:11:31.016Z,2.17
2018-12-06T16:16:40.673Z,1.73
2018-12-06T16:21:49.880Z,1.80
2018-12-06T16:26:58.590Z,1.80
2018-12-06T16:32:06.833Z,1.60
2018-12-06T16:37:15.927Z,1.90
2018-12-06T16:42:25.304Z,1.90
2018-12-06T16:47:34.879Z,1.80
2018-12-06T16:52:44.408Z,2.37
2018-12-06T16:57:54.105Z,2.20
2018-12-06T17:03:03.754Z,2.27
2018-12-06T17:08:13.249Z,2.07
2018-12-06T17:13:22.650Z,2.37
2018-12-06T17:18:26.166Z,2.80
2018-12-06T17:29:06.744Z,2.43
2018-12-06T17:34:13.843Z,2.53
2018-12-06T17:39:22.956Z,2.57
2018-12-06T17:44:37.690Z,2.67
2018-12-06T17:49:46.836Z,2.63
2018-12-06T17:54:55.797Z,2.53
2018-12-06T18:00:01.744Z,2.90
2018-12-06T18:05:10.296Z,2.90
2018-12-06T18:10:16.771Z,2.27
2018-12-06T18:15:23.547Z,2.70
2018-12-06T18:20:30.378Z,2.30
2018-12-06T18:25:40.327Z,2.40
2018-12-06T18:30:49.686Z,2.73
2018-12-06T18:35:56.287Z,2.60
2018-12-06T18:41:05.381Z,2.83
2018-12-06T18:46:14.978Z,2.50
2018-12-06T18:51:24.012Z,2.73
2018-12-06T18:56:33.159Z,2.47
2018-12-06T19:01:47.010Z,2.70
2018-12-06T19:06:52.184Z,2.17
2018-12-06T19:12:00.934Z,2.83
2018-12-06T19:17:10.110Z,2.30
2018-12-06T19:22:16.862Z,2.03
2018-12-06T19:27:25.764Z,1.73
2018-12-06T19:32:35.408Z,1.97
2018-12-06T19:37:44.955Z,2.00
2018-12-06T19:42:49.419Z,2.10
2018-12-06T19:47:56.215Z,2.20
2018-12-06T19:52:59.463Z,2.30
2018-12-06T19:58:08.933Z,2.07
2018-12-06T20:08:49.381Z,2.20
2018-12-06T20:13:52.654Z,2.10
2018-12-06T20:19:01.807Z,1.97
2018-12-06T20:24:10.739Z,1.73
2018-12-06T20:34:48.068Z,2.10
2018-12-06T20:39:57.439Z,1.85
2018-12-06T20:45:06.583Z,2.13
2018-12-06T20:50:16.526Z,1.67
2018-12-06T20:55:25.509Z,2.30
2018-12-06T21:00:28.855Z,1.90
2018-12-06T21:05:35.795Z,2.10
2018-12-06T21:10:45.424Z,2.07
2018-12-06T21:15:50.939Z,1.87
2018-12-06T21:20:58.052Z,1.63
2018-12-06T21:26:01.699Z,2.13
2018-12-06T21:42:22.475Z,2.27
2018-12-06T21:47:26.595Z,2.03
2018-12-06T21:52:39.423Z,2.50
2018-12-06T22:03:13.743Z,2.30
2018-12-06T22:08:17.014Z,2.47
2018-12-06T22:13:25.823Z,2.53
2018-12-06T22:18:29.179Z,2.50
2018-12-06T22:23:32.603Z,2.73
2018-12-06T22:28:42.131Z,2.63
2018-12-06T22:33:57.751Z,2.33
2018-12-06T22:39:07.079Z,2.60
2018-12-06T22:44:33.312Z,2.80
2018-12-06T23:00:44.243Z,2.40
2018-12-06T23:05:53.730Z,2.50
2018-12-06T23:11:03.514Z,3.10
2018-12-06T23:16:23.443Z,3.07
2018-12-06T23:32:32.801Z,3.33
2018-12-06T23:37:40.007Z,3.30
2018-12-06T23:42:43.354Z,2.90
2018-12-06T23:47:54.287Z,3.00
2018-12-06T23:53:03.703Z,3.07
